Reinbeck, Iowa
Current Conditions -  °F | °C
As of 1:54 PM on Friday 19 Dec 2014 (Local Time) from KALO Reporting Station
Overcast Overcast  
Wind Chill: 23°   Ceiling: 1800
Heat Index: 30°   Visibility: 10mi
Dew Point: 22°   Wind: 7mph
Humidity: 72%   Direction: 140°SE
Pressure: 30.23"   Gusts: NA
Location:  42.32°N, 92.6°W
Report Text: KALO 191954Z 14006KT 10SM BKN018 OVC038 M01/M06 A3023 RMK AO2 SLP250 T10111056
Loading
Personal Weather Stations






























Interactive Weather Map New forecast layout! Learn more

10-Day Weather Forecast

Advertisements
Track Severe Weather on mobile